Time;durP1;ratioP1;P1;durP2;ratioP2;P2;SDS_P1;SDS_P2;PMS_P1;PMS_P2;Temp;Humidity;BMP_temperature;BMP_pressure;BME280_temperature;BME280_humidity;BME280_pressure;Samples;Min_cycle;Max_cycle;Signal;HPM_P1;HPM_P2
2022/01/18 00:02:04;;;;;;;3.23;1.33;;;;;;;8.32;46.19;98966.47;6190894;23;20163;-89
2022/01/18 00:04:30;;;;;;;2.80;1.37;;;;;;;8.41;46.43;98968.66;6217523;23;20142;-87
2022/01/18 00:06:55;;;;;;;1.03;0.67;;;;;;;8.16;47.06;98986.31;6217186;23;20629;-89
2022/01/18 00:09:24;;;;;;;1.47;1.03;;;;;;;8.09;47.33;98985.75;6190881;23;20243;-88
2022/01/18 00:12:14;;;;;;;2.23;0.77;;;;;;;7.93;48.23;98977.78;6217452;23;20151;-87
2022/01/18 00:14:43;;;;;;;2.83;1.30;;;;;;;7.78;49.16;98978.41;6191060;23;20186;-88
2022/01/18 00:17:29;;;;;;;2.70;1.23;;;;;;;7.63;50.02;98981.69;6217379;23;20190;-88
2022/01/18 00:19:56;;;;;;;3.40;1.23;;;;;;;7.55;50.68;98981.19;6217665;23;20652;-87
2022/01/18 00:22:25;;;;;;;1.23;0.83;;;;;;;7.61;50.55;98986.16;6217130;23;20291;-91
2022/01/18 00:24:51;;;;;;;3.50;1.43;;;;;;;7.36;51.90;98982.91;6217385;23;20169;-89
2022/01/18 00:27:18;;;;;;;1.67;1.07;;;;;;;7.61;51.72;98988.75;6190697;23;20150;-88
2022/01/18 00:32:53;;;;;;;1.57;0.90;;;;;;;7.46;52.72;98992.03;6182102;23;20220;-88
2022/01/18 00:35:19;;;;;;;1.60;0.93;;;;;;;7.30;52.69;98972.72;6190973;23;20164;-89
2022/01/18 00:37:54;;;;;;;1.27;0.60;;;;;;;7.20;54.08;98989.66;6217239;23;20224;-91
2022/01/18 00:40:19;;;;;;;2.07;0.83;;;;;;;7.34;53.54;98985.56;6190840;23;20145;-89
2022/01/18 00:42:47;;;;;;;2.70;1.00;;;;;;;7.62;53.36;98993.06;6216768;23;20169;-87
2022/01/18 00:45:13;;;;;;;1.00;0.50;;;;;;;7.42;53.46;98993.06;6190953;23;20164;-90
2022/01/18 00:47:38;;;;;;;3.20;0.80;;;;;;;7.46;53.83;98989.41;6216918;23;20166;-87
2022/01/18 00:50:08;;;;;;;1.43;0.87;;;;;;;7.53;53.71;98982.16;6216630;23;20530;-87
2022/01/18 00:52:38;;;;;;;1.53;0.57;;;;;;;7.44;53.84;98997.28;6190673;23;20554;-91
2022/01/18 00:55:04;;;;;;;1.23;0.57;;;;;;;7.64;53.77;98996.47;6216710;23;20684;-88
2022/01/18 00:57:30;;;;;;;2.40;0.90;;;;;;;7.61;53.55;98991.38;6190606;23;20189;-88
2022/01/18 00:59:55;;;;;;;1.63;0.77;;;;;;;7.56;54.15;99000.28;6217609;23;20138;-89
2022/01/18 01:02:21;;;;;;;1.83;0.70;;;;;;;7.58;53.90;99011.50;6216821;23;20146;-88
2022/01/18 01:04:48;;;;;;;1.60;0.90;;;;;;;7.82;52.92;99005.25;6216793;23;20242;-89
2022/01/18 01:07:19;;;;;;;1.20;0.70;;;;;;;7.67;54.13;99027.63;6190383;23;20157;-87
2022/01/18 01:09:45;;;;;;;1.13;0.53;;;;;;;7.62;53.59;99019.16;6216896;23;20461;-88
2022/01/18 01:12:12;;;;;;;2.53;1.27;;;;;;;7.65;53.74;99024.22;6216491;23;20216;-87
2022/01/18 01:14:39;;;;;;;1.83;0.70;;;;;;;7.61;54.30;99017.44;6216433;23;20185;-87
2022/01/18 01:31:57;;;;;;;0.60;0.60;;;;;;;7.72;53.76;99019.59;6216500;23;20150;-87
2022/01/18 01:46:25;;;;;;;1.33;0.83;;;;;;;7.49;56.14;99015.38;6217373;23;20157;-86
2022/01/18 01:48:53;;;;;;;1.17;0.50;;;;;;;7.51;55.43;99026.56;6216126;23;20145;-88
2022/01/18 01:51:21;;;;;;;0.87;0.60;;;;;;;7.49;56.14;99020.59;6216442;23;20466;-88
2022/01/18 01:53:46;;;;;;;0.30;0.30;;;;;;;7.64;55.55;99032.97;6216382;23;20181;-89
2022/01/18 01:56:12;;;;;;;3.00;1.63;;;;;;;7.78;55.68;99041.03;6216388;23;20261;-87
2022/01/18 01:58:37;;;;;;;1.47;0.87;;;;;;;7.70;54.98;99040.56;6191084;23;20247;-86
2022/01/18 02:01:06;;;;;;;0.80;0.70;;;;;;;7.67;55.55;99047.66;6216679;23;20150;-88
2022/01/18 02:03:32;;;;;;;1.47;0.57;;;;;;;7.63;55.44;99061.72;6189816;23;20161;-86
2022/01/18 02:05:59;;;;;;;0.97;0.50;;;;;;;7.42;56.09;99069.53;6216042;23;20150;-89
2022/01/18 02:08:24;;;;;;;1.20;0.50;;;;;;;7.59;55.92;99074.06;6216053;23;20212;-88
2022/01/18 02:10:53;;;;;;;0.97;0.67;;;;;;;7.30;56.34;99084.81;6189712;23;20448;-88
2022/01/18 02:13:18;;;;;;;1.40;0.63;;;;;;;7.37;55.84;99086.25;6189670;23;20186;-91
2022/01/18 02:16:11;;;;;;;1.57;0.60;;;;;;;7.35;55.09;99065.47;6190373;23;20168;-91
2022/01/18 02:24:11;;;;;;;0.67;0.50;;;;;;;7.33;57.81;99140.31;6216488;23;20243;-91
2022/01/18 02:26:37;;;;;;;2.83;0.83;;;;;;;7.49;58.36;99143.16;6190572;23;20154;-92
2022/01/18 02:29:04;;;;;;;0.80;0.60;;;;;;;7.60;58.09;99158.38;6189951;23;20244;-92
2022/01/18 02:31:39;;;;;;;1.03;0.50;;;;;;;7.49;58.58;99168.38;6190264;23;20158;-89
2022/01/18 02:34:08;;;;;;;1.33;0.70;;;;;;;7.32;62.43;99175.09;6190703;23;20185;-88
2022/01/18 02:36:33;;;;;;;2.37;1.17;;;;;;;7.31;63.34;99180.38;6189674;23;20192;-91
2022/01/18 02:38:59;;;;;;;0.50;0.30;;;;;;;7.01;66.41;99198.03;6216476;23;20224;-89
2022/01/18 02:41:30;;;;;;;1.40;0.47;;;;;;;7.09;66.18;99200.34;6190914;23;20165;-89
2022/01/18 02:43:58;;;;;;;0.70;0.50;;;;;;;7.03;66.29;99211.84;6216493;23;20137;-90
2022/01/18 02:46:24;;;;;;;1.90;0.93;;;;;;;7.16;65.64;99207.00;6215778;23;20233;-92
2022/01/18 02:49:00;;;;;;;0.90;0.53;;;;;;;7.41;64.03;99232.13;6189637;23;20181;-89
2022/01/18 02:51:26;;;;;;;1.93;0.93;;;;;;;7.46;63.31;99241.50;6189789;23;20153;-92
2022/01/18 02:53:57;;;;;;;0.70;0.40;;;;;;;7.39;64.54;99240.88;6216128;23;20651;-92
2022/01/18 02:56:24;;;;;;;1.23;0.60;;;;;;;6.94;66.53;99258.25;6189833;23;20153;-91
2022/01/18 02:58:50;;;;;;;1.00;0.77;;;;;;;6.79;67.53;99250.06;6189959;23;20177;-88
2022/01/18 03:04:00;;;;;;;0.50;0.30;;;;;;;6.83;66.51;99266.44;6215850;23;20176;-90
2022/01/18 03:06:25;;;;;;;0.40;0.33;;;;;;;6.91;65.76;99269.63;6189759;23;20158;-92
2022/01/18 03:08:51;;;;;;;0.70;0.60;;;;;;;6.95;64.16;99285.97;6215819;23;20149;-88
2022/01/18 03:11:16;;;;;;;1.33;0.67;;;;;;;6.91;63.34;99300.03;6189534;23;20231;-89
2022/01/18 03:13:55;;;;;;;0.87;0.50;;;;;;;7.05;62.20;99297.81;6215272;23;20243;-95
2022/01/18 03:16:25;;;;;;;1.43;0.73;;;;;;;7.18;61.07;99304.28;6189624;23;20164;-92
2022/01/18 03:19:11;;;;;;;0.77;0.50;;;;;;;7.38;59.77;99301.78;6189718;23;20146;-91
2022/01/18 03:21:40;;;;;;;0.97;0.60;;;;;;;7.52;59.12;99309.09;6189525;23;20153;-93
2022/01/18 03:24:19;;;;;;;2.00;1.17;;;;;;;7.34;57.40;99305.38;6216406;23;20149;-91
2022/01/18 03:29:29;;;;;;;0.90;0.60;;;;;;;7.65;54.83;99324.19;6216398;23;20182;-92
2022/01/18 03:31:55;;;;;;;0.80;0.57;;;;;;;7.64;53.71;99335.56;6189851;23;20153;-92
2022/01/18 03:34:26;;;;;;;0.50;0.40;;;;;;;7.52;52.32;99349.03;6215623;23;20174;-92
2022/01/18 03:36:55;;;;;;;1.97;0.60;;;;;;;7.11;51.78;99350.56;6189539;23;20158;-92
2022/01/18 03:39:20;;;;;;;1.40;0.50;;;;;;;6.78;52.08;99367.34;6190069;23;20169;-91
2022/01/18 03:41:53;;;;;;;0.40;0.40;;;;;;;6.90;52.58;99386.91;6189278;23;20470;-90
2022/01/18 03:44:21;;;;;;;0.50;0.40;;;;;;;6.69;51.78;99389.34;6215688;23;20196;-90
2022/01/18 03:46:56;;;;;;;0.67;0.47;;;;;;;6.72;51.85;99409.22;6215472;23;20161;-91
2022/01/18 03:49:23;;;;;;;0.60;0.40;;;;;;;6.91;51.40;99405.13;6216119;23;20133;-91
2022/01/18 03:51:49;;;;;;;0.77;0.33;;;;;;;7.12;49.58;99408.75;6189166;23;20169;-91
2022/01/18 03:54:21;;;;;;;1.60;0.77;;;;;;;7.09;49.33;99424.47;6189161;23;20193;-91
2022/01/18 03:56:46;;;;;;;1.60;0.60;;;;;;;7.23;49.11;99427.47;6215680;23;20134;-90
2022/01/18 03:59:12;;;;;;;0.50;0.40;;;;;;;6.89;49.52;99419.09;6215312;23;20201;-90
2022/01/18 04:01:37;;;;;;;0.60;0.50;;;;;;;6.75;49.71;99423.00;6188936;23;20578;-91
2022/01/18 04:04:03;;;;;;;0.40;0.30;;;;;;;6.71;50.01;99431.81;6215994;23;20142;-91
2022/01/18 04:06:29;;;;;;;0.43;0.30;;;;;;;6.89;49.86;99442.56;6215354;23;20600;-91
2022/01/18 04:08:54;;;;;;;0.93;0.70;;;;;;;7.03;49.76;99461.16;6215301;23;20228;-91
2022/01/18 04:11:19;;;;;;;2.47;1.00;;;;;;;7.10;49.18;99467.91;6215183;23;20157;-91
2022/01/18 04:13:45;;;;;;;0.53;0.50;;;;;;;7.19;48.68;99467.56;6189490;23;20177;-91
2022/01/18 04:16:10;;;;;;;0.50;0.37;;;;;;;7.08;47.56;99474.91;6215260;23;20553;-91
2022/01/18 04:18:58;;;;;;;0.77;0.50;;;;;;;6.96;48.05;99484.00;6189263;23;20164;-90
2022/01/18 04:26:57;;;;;;;1.03;0.40;;;;;;;5.90;46.64;99483.75;6217471;23;20159;-91
2022/01/18 04:29:23;;;;;;;0.67;0.53;;;;;;;5.62;46.96;99475.84;6192207;23;20160;-90
2022/01/18 04:31:51;;;;;;;1.23;0.77;;;;;;;5.43;47.45;99475.50;6216983;23;20150;-90
2022/01/18 04:34:17;;;;;;;1.20;0.80;;;;;;;5.51;46.94;99486.53;6216815;23;20184;-92
2022/01/18 04:36:45;;;;;;;0.73;0.53;;;;;;;5.42;46.78;99486.78;6217281;23;20153;-89
2022/01/18 04:39:10;;;;;;;1.87;0.57;;;;;;;5.19;47.51;99486.50;6190826;23;20172;-90
2022/01/18 04:41:36;;;;;;;0.60;0.47;;;;;;;5.07;46.80;99502.41;6190784;23;20158;-91
2022/01/18 04:48:23;;;;;;;0.60;0.47;;;;;;;5.22;46.95;99509.81;6216922;23;20146;-91
2022/01/18 04:49:33;;;;;;;0.50;0.30;;;;;;;4.58;47.42;99517.44;6217179;23;20208;-88
2022/01/18 04:51:59;;;;;;;0.40;0.37;;;;;;;4.62;47.59;99516.47;6217179;23;20536;-90
2022/01/18 04:54:29;;;;;;;0.60;0.40;;;;;;;4.51;46.84;99531.47;6216774;23;20555;-90
2022/01/18 04:59:26;;;;;;;0.50;0.50;;;;;;;4.77;46.55;99537.75;6217054;23;20154;-92
2022/01/18 05:01:55;;;;;;;0.90;0.30;;;;;;;4.94;45.54;99535.63;6190684;23;20154;-89
2022/01/18 05:04:20;;;;;;;0.77;0.53;;;;;;;4.77;45.96;99529.13;6217148;23;20563;-92
2022/01/18 05:06:46;;;;;;;1.90;0.50;;;;;;;4.88;45.52;99529.72;6190733;23;20169;-89
2022/01/18 05:09:12;;;;;;;1.60;0.47;;;;;;;4.60;45.70;99533.84;6216768;23;20150;-89
2022/01/18 05:11:49;;;;;;;0.73;0.73;;;;;;;4.62;45.80;99539.84;6216786;23;20493;-88
2022/01/18 05:14:33;;;;;;;1.47;0.30;;;;;;;4.87;45.31;99538.41;6190610;23;20525;-94
2022/01/18 05:24:22;;;;;;;0.33;0.27;;;;;;;5.21;46.35;99585.25;6217388;23;20150;-91
2022/01/18 05:26:48;;;;;;;0.47;0.47;;;;;;;5.25;46.06;99594.66;6190693;23;20232;-91
2022/01/18 05:29:15;;;;;;;1.17;1.07;;;;;;;5.06;45.91;99609.00;6190514;23;20154;-89
2022/01/18 05:31:41;;;;;;;0.40;0.40;;;;;;;5.05;45.58;99615.06;6190313;23;20150;-91
2022/01/18 05:34:06;;;;;;;1.80;0.70;;;;;;;4.99;45.83;99613.44;6216459;23;20611;-91
2022/01/18 05:36:31;;;;;;;1.27;0.53;;;;;;;4.90;45.54;99608.47;6189937;23;20150;-88
2022/01/18 05:38:57;;;;;;;0.40;0.37;;;;;;;5.04;45.25;99614.19;6190134;23;20189;-89
2022/01/18 05:41:40;;;;;;;1.03;0.63;;;;;;;4.84;45.06;99606.00;5111407;27;20562;-91
2022/01/18 05:44:06;;;;;;;0.30;0.30;;;;;;;4.83;45.83;99593.91;5111005;27;20164;-87
2022/01/18 05:46:32;;;;;;;1.90;0.73;;;;;;;4.89;45.78;99598.97;5111197;28;20183;-90
2022/01/18 05:49:01;;;;;;;1.57;0.70;;;;;;;4.97;45.19;99599.66;5111282;28;20179;-87
2022/01/18 05:51:27;;;;;;;0.30;0.30;;;;;;;4.87;45.13;99608.53;5111252;28;20250;-91
2022/01/18 05:53:53;;;;;;;4.50;0.57;;;;;;;4.83;44.74;99614.69;5109922;28;20690;-89
2022/01/18 05:56:19;;;;;;;0.93;0.40;;;;;;;5.08;45.29;99628.00;5110942;27;20212;-92
2022/01/18 05:58:45;;;;;;;0.80;0.73;;;;;;;4.95;44.58;99630.84;5111157;28;20176;-91
2022/01/18 06:01:22;;;;;;;1.30;0.93;;;;;;;4.91;45.07;99628.34;5109762;28;20204;-90
2022/01/18 06:09:09;;;;;;;1.80;0.47;;;;;;;4.37;45.01;99676.22;5111153;28;20187;-89
2022/01/18 06:11:35;;;;;;;1.50;0.60;;;;;;;4.62;44.67;99690.41;5110575;27;20594;-91
2022/01/18 06:14:00;;;;;;;0.40;0.40;;;;;;;4.73;44.18;99701.47;5110859;28;20183;-91
2022/01/18 06:16:27;;;;;;;0.63;0.37;;;;;;;4.72;44.49;99707.53;5110467;28;20178;-90
2022/01/18 06:18:53;;;;;;;1.80;0.50;;;;;;;4.87;43.94;99715.84;5110435;28;20172;-90
2022/01/18 06:21:19;;;;;;;1.00;0.40;;;;;;;4.82;44.10;99716.88;5110357;28;20249;-88
2022/01/18 06:23:45;;;;;;;0.33;0.30;;;;;;;4.77;43.94;99713.50;5110398;28;20179;-90
2022/01/18 06:26:15;;;;;;;0.40;0.40;;;;;;;4.85;44.39;99714.19;5109395;28;20180;-91
2022/01/18 06:28:40;;;;;;;0.43;0.33;;;;;;;4.90;43.73;99735.75;5109638;28;20180;-91
2022/01/18 06:31:06;;;;;;;0.50;0.40;;;;;;;5.41;43.17;99733.78;5109427;28;20184;-91
2022/01/18 06:33:31;;;;;;;2.57;0.57;;;;;;;5.86;42.24;99737.09;5109535;28;20622;-91
2022/01/18 06:35:57;;;;;;;0.70;0.60;;;;;;;6.08;42.10;99748.66;5109294;28;20180;-91
2022/01/18 06:38:22;;;;;;;2.03;0.67;;;;;;;6.12;41.35;99747.72;5109149;28;20179;-91
2022/01/18 06:40:49;;;;;;;1.57;0.40;;;;;;;6.32;41.68;99753.28;5110087;28;20708;-91
2022/01/18 06:43:15;;;;;;;1.23;0.70;;;;;;;6.73;40.46;99755.63;5110022;28;20532;-91
2022/01/18 06:45:40;;;;;;;0.80;0.60;;;;;;;6.92;40.78;99760.38;5109501;28;20176;-92
2022/01/18 06:48:07;;;;;;;1.73;0.80;;;;;;;6.82;40.48;99770.16;5109614;28;20182;-91
2022/01/18 06:50:33;;;;;;;0.20;0.20;;;;;;;6.70;40.36;99771.38;5108820;28;20231;-89
2022/01/18 06:52:59;;;;;;;1.97;0.60;;;;;;;6.34;40.24;99768.88;5096222;28;20269;-92
2022/01/18 06:55:25;;;;;;;21.97;2.10;;;;;;;6.29;40.32;99763.75;5096154;28;20202;-91
2022/01/18 06:57:50;;;;;;;1.37;0.60;;;;;;;6.36;40.05;99762.72;5096084;28;20172;-91
2022/01/18 07:00:16;;;;;;;0.40;0.33;;;;;;;6.58;39.97;99760.41;5095163;28;20200;-90
2022/01/18 07:02:42;;;;;;;0.20;0.20;;;;;;;6.80;39.45;99761.53;5095132;28;20174;-88
2022/01/18 07:05:08;;;;;;;0.33;0.33;;;;;;;6.49;39.11;99756.31;5096001;28;20193;-89
2022/01/18 07:07:33;;;;;;;1.47;0.83;;;;;;;6.41;39.46;99758.25;5096433;28;20256;-91
2022/01/18 07:09:59;;;;;;;0.40;0.33;;;;;;;6.35;38.81;99770.56;5095893;28;20173;-90
2022/01/18 07:12:25;;;;;;;0.50;0.40;;;;;;;6.26;38.79;99768.19;5095861;28;20569;-86
2022/01/18 07:14:51;;;;;;;0.60;0.47;;;;;;;6.35;38.43;99767.97;5096326;28;20201;-87
2022/01/18 07:17:17;;;;;;;0.53;0.47;;;;;;;6.30;38.80;99770.69;5094745;28;20180;-88
2022/01/18 07:19:42;;;;;;;3.10;0.80;;;;;;;6.17;38.70;99784.91;5095630;28;20184;-89
2022/01/18 07:22:08;;;;;;;0.73;0.37;;;;;;;6.58;38.48;99782.09;5094651;28;20176;-92
2022/01/18 07:27:06;;;;;;;0.83;0.53;;;;;;;7.08;37.10;99791.16;5095959;28;20276;-91
2022/01/18 07:29:31;;;;;;;2.40;0.83;;;;;;;6.97;38.10;99790.59;5095498;28;20613;-91
2022/01/18 07:31:57;;;;;;;1.70;1.00;;;;;;;6.88;37.15;99795.19;5095447;28;20179;-89
2022/01/18 07:34:23;;;;;;;1.20;0.70;;;;;;;6.58;37.69;99792.50;5094436;28;20183;-88
2022/01/18 07:36:48;;;;;;;0.47;0.33;;;;;;;6.71;37.96;99804.31;5095291;28;20179;-91
2022/01/18 07:39:14;;;;;;;1.27;0.53;;;;;;;6.36;38.18;99799.19;5095636;28;20169;-88
2022/01/18 07:41:39;;;;;;;0.57;0.40;;;;;;;6.20;38.66;99813.47;5095811;28;20164;-89
2022/01/18 07:44:05;;;;;;;0.83;0.33;;;;;;;5.98;39.20;99809.63;5095298;28;20183;-86
2022/01/18 07:46:30;;;;;;;1.10;0.60;;;;;;;5.89;39.36;99820.28;5095113;28;20240;-89
2022/01/18 07:48:56;;;;;;;0.97;0.63;;;;;;;5.85;39.89;99823.81;5095406;28;20176;-90
2022/01/18 07:51:21;;;;;;;1.73;0.67;;;;;;;6.08;40.44;99812.00;5095519;28;20187;-90
2022/01/18 07:53:47;;;;;;;0.50;0.40;;;;;;;6.22;39.64;99809.06;5095069;28;20592;-89
2022/01/18 07:56:13;;;;;;;0.27;0.27;;;;;;;6.45;40.23;99819.75;5095058;28;20176;-89
2022/01/18 07:58:39;;;;;;;0.50;0.33;;;;;;;6.32;40.20;99827.91;5094938;28;20263;-89
2022/01/18 08:01:04;;;;;;;2.87;0.73;;;;;;;6.24;39.92;99838.50;5095153;28;20287;-93
2022/01/18 08:03:33;;;;;;;0.50;0.30;;;;;;;6.39;40.13;99843.38;5094119;28;20180;-90
2022/01/18 08:05:59;;;;;;;0.23;0.20;;;;;;;6.15;38.83;99846.56;5094839;28;20179;-89
2022/01/18 08:08:26;;;;;;;0.97;0.70;;;;;;;6.09;39.24;99851.88;5095427;28;20263;-91
2022/01/18 08:10:52;;;;;;;1.30;0.67;;;;;;;6.37;38.76;99865.13;5094907;28;20168;-93
2022/01/18 08:13:17;;;;;;;0.20;0.20;;;;;;;6.14;38.10;99863.91;5093855;28;20245;-88
2022/01/18 08:15:44;;;;;;;1.43;0.30;;;;;;;6.15;38.70;99885.59;5093792;28;20176;-91
2022/01/18 08:18:16;;;;;;;0.80;0.43;;;;;;;6.19;38.68;99882.88;5093696;28;20533;-92
2022/01/18 08:20:41;;;;;;;1.13;0.70;;;;;;;6.05;39.29;99890.13;5094851;28;20653;-91
2022/01/18 08:23:07;;;;;;;1.13;0.87;;;;;;;6.15;39.44;99906.41;5093597;28;20191;-90
2022/01/18 08:25:34;;;;;;;7.37;4.10;;;;;;;6.22;39.32;99897.56;5094065;28;20184;-90
2022/01/18 08:28:03;;;;;;;2.23;0.60;;;;;;;6.51;39.41;99895.16;5094669;28;20520;-90
2022/01/18 08:30:28;;;;;;;1.70;0.50;;;;;;;6.40;39.94;99889.31;5093696;28;20202;-90
2022/01/18 08:32:55;;;;;;;5.40;0.87;;;;;;;6.47;39.15;99903.91;5094334;28;20180;-90
2022/01/18 08:35:21;;;;;;;1.23;0.60;;;;;;;6.55;38.91;99885.50;5094599;28;20165;-90
2022/01/18 08:37:47;;;;;;;1.30;0.70;;;;;;;6.57;38.59;99902.81;5094518;28;20168;-89
2022/01/18 08:40:13;;;;;;;1.53;0.60;;;;;;;6.79;40.12;99900.50;5094078;28;20218;-91
2022/01/18 08:42:38;;;;;;;0.63;0.50;;;;;;;6.92;37.92;99906.28;5094091;28;20211;-89
2022/01/18 08:45:06;;;;;;;2.20;0.60;;;;;;;7.01;38.57;99896.47;5094432;28;20621;-93
2022/01/18 08:47:35;;;;;;;0.30;0.20;;;;;;;7.13;37.50;99916.13;5094421;28;20168;-91
2022/01/18 08:50:00;;;;;;;0.40;0.30;;;;;;;6.91;37.94;99899.38;5093201;28;20655;-89
2022/01/18 08:52:26;;;;;;;0.90;0.40;;;;;;;6.98;38.35;99911.34;5094099;28;20255;-91
2022/01/18 08:54:52;;;;;;;0.53;0.23;;;;;;;6.95;37.63;99906.19;5093380;28;20180;-89
2022/01/18 08:57:17;;;;;;;1.10;0.40;;;;;;;7.06;37.44;99894.59;5094370;28;20195;-88
2022/01/18 08:59:43;;;;;;;0.43;0.33;;;;;;;7.25;37.74;99900.19;5092924;28;20204;-87
2022/01/18 09:02:11;;;;;;;0.40;0.30;;;;;;;7.02;37.70;99905.16;5093754;28;20184;-89
2022/01/18 09:04:36;;;;;;;5.10;0.93;;;;;;;7.11;38.09;99900.56;5093705;28;20180;-87
2022/01/18 09:07:07;;;;;;;1.00;0.60;;;;;;;7.30;37.29;99900.91;5093691;28;20525;-88
2022/01/18 09:09:38;;;;;;;0.20;0.20;;;;;;;7.43;36.65;99902.28;5093569;28;20269;-87
2022/01/18 09:12:04;;;;;;;1.67;1.00;;;;;;;7.16;38.34;99906.50;5094188;28;20163;-88
2022/01/18 09:14:29;;;;;;;1.03;0.60;;;;;;;7.01;38.01;99906.03;5093884;28;20180;-87
2022/01/18 09:16:56;;;;;;;0.60;0.50;;;;;;;7.31;36.62;99910.47;5093515;28;20207;-88
2022/01/18 09:19:21;;;;;;;0.87;0.33;;;;;;;7.30;36.97;99903.53;5093570;28;20176;-90
2022/01/18 09:21:48;;;;;;;0.67;0.30;;;;;;;7.03;36.54;99904.25;5092947;28;20195;-87
2022/01/18 09:24:15;;;;;;;0.27;0.23;;;;;;;7.26;36.91;99891.44;5092439;28;20636;-87
2022/01/18 09:26:41;;;;;;;0.43;0.40;;;;;;;7.26;37.21;99891.44;5093417;28;20180;-87
2022/01/18 09:29:09;;;;;;;0.33;0.30;;;;;;;7.61;36.94;99893.09;5092366;28;20705;-91
2022/01/18 09:31:36;;;;;;;1.53;1.00;;;;;;;7.36;37.58;99885.94;5093591;28;20188;-90
2022/01/18 09:34:02;;;;;;;2.87;1.67;;;;;;;7.34;37.12;99884.28;5093466;28;20649;-90
2022/01/18 09:36:27;;;;;;;0.30;0.30;;;;;;;7.41;37.25;99878.88;5092415;28;20180;-91
2022/01/18 09:38:53;;;;;;;1.00;0.50;;;;;;;7.72;37.67;99873.63;5093588;28;20256;-90
2022/01/18 09:41:22;;;;;;;3.47;1.17;;;;;;;8.03;37.00;99878.78;5093616;28;20614;-90
2022/01/18 09:43:48;;;;;;;5.40;0.80;;;;;;;8.09;36.81;99867.28;5092769;28;20537;-94
2022/01/18 09:46:14;;;;;;;1.87;0.70;;;;;;;7.94;36.36;99872.06;5093231;28;20168;-90
2022/01/18 09:48:39;;;;;;;1.03;0.50;;;;;;;8.21;36.10;99854.72;5093249;28;20516;-88
2022/01/18 09:51:09;;;;;;;0.23;0.23;;;;;;;8.13;35.86;99851.47;5093427;28;20180;-94
2022/01/18 09:53:34;;;;;;;1.13;0.57;;;;;;;8.22;35.34;99845.13;5093537;28;20638;-91
2022/01/18 09:55:59;;;;;;;2.40;0.80;;;;;;;8.33;36.82;99845.69;5093463;28;20283;-89
2022/01/18 09:58:37;;;;;;;1.93;0.93;;;;;;;8.27;35.96;99848.47;5093311;28;20195;-91
2022/01/18 10:01:03;;;;;;;0.20;0.20;;;;;;;8.24;37.08;99843.31;5092390;28;20190;-92
2022/01/18 10:03:31;;;;;;;0.70;0.40;;;;;;;8.42;37.37;99846.22;5093298;28;20189;-92
2022/01/18 10:05:56;;;;;;;2.63;0.50;;;;;;;8.31;36.43;99837.00;5092935;28;20187;-93
2022/01/18 10:08:23;;;;;;;2.03;0.70;;;;;;;8.13;35.96;99834.94;5092523;28;20173;-91
2022/01/18 10:10:53;;;;;;;0.90;0.40;;;;;;;7.99;36.46;99823.19;5092985;28;20204;-91
2022/01/18 10:13:36;;;;;;;7.20;0.60;;;;;;;7.77;36.09;99810.84;5094828;28;20226;-90
2022/01/18 10:16:21;;;;;;;0.20;0.20;;;;;;;8.21;35.53;99814.69;5093370;28;20179;-90
2022/01/18 10:19:05;;;;;;;2.37;0.50;;;;;;;8.11;34.76;99821.09;5092613;28;20233;-91
2022/01/18 10:21:45;;;;;;;2.60;0.70;;;;;;;7.86;35.53;99821.84;5091215;28;20643;-91
2022/01/18 10:24:20;;;;;;;0.37;0.30;;;;;;;7.87;35.84;99831.41;5094138;28;20519;-91
2022/01/18 10:26:47;;;;;;;0.47;0.47;;;;;;;7.89;35.71;99829.59;5094850;28;20200;-88
2022/01/18 10:29:20;;;;;;;1.23;0.53;;;;;;;8.01;36.04;99826.63;5097217;28;20219;-89
2022/01/18 10:34:42;;;;;;;10.30;0.67;;;;;;;8.46;37.20;99832.13;5098219;28;20256;-95
2022/01/18 10:37:17;;;;;;;1.33;0.40;;;;;;;8.32;35.56;99834.38;5096294;28;20183;-93
2022/01/18 10:39:48;;;;;;;1.50;0.87;;;;;;;8.25;35.40;99834.59;5096240;28;20217;-90
2022/01/18 10:42:47;;;;;;;2.53;0.63;;;;;;;8.25;35.68;99825.00;5096202;28;20169;-93
2022/01/18 10:45:30;;;;;;;0.87;0.50;;;;;;;8.31;36.13;99824.81;5089025;28;20733;-89
2022/01/18 10:48:01;;;;;;;2.00;0.70;;;;;;;8.15;35.69;99814.91;5097086;28;20173;-93
2022/01/18 10:50:41;;;;;;;4.00;1.10;;;;;;;8.74;36.40;99819.03;5096815;28;20229;-94
2022/01/18 10:53:21;;;;;;;0.93;0.47;;;;;;;9.02;35.55;99804.06;5097648;28;20170;-92
2022/01/18 10:55:51;;;;;;;3.53;0.73;;;;;;;8.93;35.73;99806.16;5097296;28;20753;-88
2022/01/18 10:58:26;;;;;;;0.90;0.57;;;;;;;9.08;34.95;99787.31;5095731;28;20497;-92
2022/01/18 11:00:51;;;;;;;0.80;0.60;;;;;;;8.81;33.94;99794.38;5095843;28;20198;-93
2022/01/18 11:03:17;;;;;;;3.03;0.60;;;;;;;8.72;34.29;99786.00;5096325;28;20179;-90
2022/01/18 11:05:44;;;;;;;1.23;0.93;;;;;;;8.64;33.99;99786.28;5096274;28;20189;-90
2022/01/18 11:08:09;;;;;;;1.17;0.50;;;;;;;8.79;35.02;99777.03;5096499;28;20172;-91
2022/01/18 11:10:48;;;;;;;1.53;0.80;;;;;;;8.57;33.65;99779.53;5096562;28;20172;-93
2022/01/18 11:13:24;;;;;;;0.30;0.30;;;;;;;8.86;35.29;99782.00;5095366;28;20171;-95
2022/01/18 11:15:53;;;;;;;0.30;0.30;;;;;;;8.38;34.20;99783.69;5095636;28;20610;-92
2022/01/18 11:18:30;;;;;;;1.77;0.77;;;;;;;8.30;34.61;99802.22;5095692;28;20239;-91
2022/01/18 11:20:56;;;;;;;7.83;0.50;;;;;;;8.42;34.36;99790.50;5095517;28;20201;-92
2022/01/18 11:23:23;;;;;;;2.43;1.43;;;;;;;8.56;34.65;99798.75;5094662;28;20240;-88
2022/01/18 11:25:51;;;;;;;3.17;0.77;;;;;;;8.60;34.21;99789.88;5094840;28;20188;-89
2022/01/18 11:28:17;;;;;;;1.73;0.90;;;;;;;8.61;34.63;99781.16;5095406;28;20547;-88
2022/01/18 11:30:45;;;;;;;0.83;0.30;;;;;;;8.93;35.37;99786.13;5094949;28;20170;-90
2022/01/18 11:33:13;;;;;;;1.10;0.83;;;;;;;8.86;34.23;99787.22;5094491;28;20178;-88
2022/01/18 11:36:08;;;;;;;0.83;0.60;;;;;;;8.90;34.26;99783.59;5094743;28;20660;-91
2022/01/18 11:38:42;;;;;;;1.50;0.70;;;;;;;8.87;33.43;99782.84;5094546;28;20179;-89
2022/01/18 11:41:34;;;;;;;0.60;0.37;;;;;;;8.92;33.56;99781.78;5094436;28;20224;-91
2022/01/18 11:44:13;;;;;;;0.30;0.30;;;;;;;8.82;33.95;99790.00;5095578;28;20163;-91
2022/01/18 11:46:45;;;;;;;1.77;0.60;;;;;;;9.21;34.67;99773.75;5095337;28;20178;-90
2022/01/18 11:49:30;;;;;;;6.83;0.70;;;;;;;9.22;34.17;99790.28;5095028;28;20580;-89
2022/01/18 11:52:06;;;;;;;1.30;1.03;;;;;;;9.06;34.21;99795.22;5096195;28;20255;-91
2022/01/18 11:57:04;;;;;;;2.83;0.87;;;;;;;9.32;34.22;99786.41;5095313;28;20195;-90
2022/01/18 11:59:42;;;;;;;1.13;0.60;;;;;;;9.17;34.65;99787.81;5095730;28;20606;-92
2022/01/18 12:02:08;;;;;;;0.63;0.40;;;;;;;8.99;35.50;99790.25;5095321;28;20183;-90
2022/01/18 12:04:40;;;;;;;0.27;0.20;;;;;;;9.26;35.21;99782.25;5094225;28;20589;-90
2022/01/18 12:07:09;;;;;;;3.33;0.80;;;;;;;9.32;34.85;99791.66;5094787;28;20179;-90
2022/01/18 12:09:45;;;;;;;12.43;0.47;;;;;;;9.31;34.35;99786.47;5094744;28;20169;-91
2022/01/18 12:12:39;;;;;;;1.90;0.50;;;;;;;9.66;34.58;99773.78;5094599;28;20172;-88
2022/01/18 12:15:26;;;;;;;1.43;0.60;;;;;;;9.65;33.52;99790.38;5090635;28;20189;-87
2022/01/18 12:17:56;;;;;;;0.70;0.43;;;;;;;9.77;33.63;99784.66;5094514;28;20180;-89
2022/01/18 12:20:37;;;;;;;2.73;0.73;;;;;;;9.96;33.42;99795.25;5094442;28;20289;-88
2022/01/18 12:23:05;;;;;;;0.87;0.47;;;;;;;9.89;31.76;99793.81;5094514;28;20186;-87
2022/01/18 12:25:35;;;;;;;1.40;0.93;;;;;;;9.84;32.03;99795.75;5093778;28;20497;-88
2022/01/18 12:28:51;;;;;;;3.07;0.70;;;;;;;9.96;33.56;99784.78;5094353;28;20173;-88
2022/01/18 12:34:24;;;;;;;1.00;0.50;;;;;;;10.10;34.24;99787.72;5094669;28;20249;-88
2022/01/18 12:36:51;;;;;;;1.87;0.73;;;;;;;10.12;33.24;99788.53;5093222;28;20184;-90
2022/01/18 12:39:20;;;;;;;0.80;0.40;;;;;;;10.19;32.35;99776.91;5093071;28;20275;-92
2022/01/18 12:41:52;;;;;;;1.53;0.57;;;;;;;9.92;33.02;99782.34;5094122;28;20214;-92
2022/01/18 12:44:21;;;;;;;1.27;0.77;;;;;;;10.00;32.13;99788.16;5093508;28;20174;-89
2022/01/18 12:46:58;;;;;;;0.80;0.60;;;;;;;9.97;33.01;99798.75;5094366;28;20206;-89
2022/01/18 12:49:24;;;;;;;1.47;0.63;;;;;;;9.72;33.30;99788.38;5093875;28;20531;-89
2022/01/18 12:51:59;;;;;;;2.63;0.67;;;;;;;10.02;33.42;99792.41;5093260;28;20504;-88
2022/01/18 12:54:37;;;;;;;0.53;0.20;;;;;;;9.65;31.74;99794.75;5094601;28;20182;-92
2022/01/18 12:57:19;;;;;;;1.00;0.53;;;;;;;9.42;32.24;99803.47;5094206;28;20179;-91
2022/01/18 13:00:02;;;;;;;3.57;0.83;;;;;;;9.61;32.83;99787.94;5094255;28;20208;-91
2022/01/18 13:02:28;;;;;;;0.30;0.30;;;;;;;9.40;33.08;99804.44;5093013;28;20176;-89
2022/01/18 13:05:07;;;;;;;0.60;0.50;;;;;;;9.43;31.91;99809.56;5094187;28;20186;-90
2022/01/18 13:07:33;;;;;;;0.63;0.30;;;;;;;9.25;32.17;99805.84;5094300;28;20193;-88